Time;durP1;ratioP1;P1;durP2;ratioP2;P2;SDS_P1;SDS_P2;PMS_P1;PMS_P2;Temp;Humidity;BMP_temperature;BMP_pressure;BME280_temperature;BME280_humidity;BME280_pressure;Samples;Min_cycle;Max_cycle;Signal;HPM_P1;HPM_P2
2024/01/12 00:00:31;;;;;;;4.07;3.67;;;1.50;80.50;;;;;;4969110;28;20221;-82
2024/01/12 00:03:01;;;;;;;3.97;2.80;;;1.60;80.40;;;;;;4965988;28;20695;-82
2024/01/12 00:05:30;;;;;;;4.83;4.40;;;1.60;80.40;;;;;;4969287;28;20203;-82
2024/01/12 00:08:00;;;;;;;11.23;3.17;;;1.60;80.40;;;;;;4970229;28;20202;-82
2024/01/12 00:10:28;;;;;;;1.87;1.77;;;1.60;80.50;;;;;;4966253;28;20207;-83
2024/01/12 00:12:58;;;;;;;5.00;2.87;;;1.60;80.40;;;;;;4963079;28;20314;-82
2024/01/12 00:15:26;;;;;;;2.00;1.90;;;1.60;80.40;;;;;;4968920;28;20213;-83
2024/01/12 00:17:55;;;;;;;3.27;2.70;;;1.60;80.50;;;;;;4966281;28;20398;-83
2024/01/12 00:20:24;;;;;;;3.80;3.50;;;1.60;80.40;;;;;;4967909;28;20683;-83
2024/01/12 00:22:56;;;;;;;7.60;3.23;;;1.60;80.30;;;;;;4965152;28;20250;-83
2024/01/12 00:25:25;;;;;;;4.13;3.73;;;1.60;80.10;;;;;;4968846;28;20202;-82
2024/01/12 00:27:54;;;;;;;3.87;2.50;;;1.60;80.10;;;;;;4962591;28;20244;-83
2024/01/12 00:30:23;;;;;;;7.10;3.50;;;1.70;80.10;;;;;;4975310;28;20203;-82
2024/01/12 00:32:52;;;;;;;4.63;3.93;;;1.70;80.10;;;;;;4972743;28;20298;-82
2024/01/12 00:35:21;;;;;;;2.00;1.80;;;1.70;80.40;;;;;;4973105;28;20218;-83
2024/01/12 00:37:50;;;;;;;5.90;3.33;;;1.80;80.30;;;;;;4965749;28;20212;-83
2024/01/12 00:40:19;;;;;;;6.90;2.53;;;1.80;80.40;;;;;;4970816;28;20206;-83
2024/01/12 00:42:50;;;;;;;3.30;3.00;;;1.80;80.20;;;;;;4968754;28;20229;-82
2024/01/12 00:45:18;;;;;;;2.60;2.40;;;1.80;80.20;;;;;;4967906;28;20205;-82
2024/01/12 00:47:47;;;;;;;3.07;2.53;;;1.80;80.10;;;;;;4961770;28;20224;-82
2024/01/12 00:50:16;;;;;;;4.43;4.03;;;1.80;80.10;;;;;;4961398;28;22823;-84
2024/01/12 00:52:46;;;;;;;3.37;2.87;;;1.80;80.00;;;;;;4970801;28;20526;-81
2024/01/12 00:55:14;;;;;;;5.00;2.03;;;1.80;79.90;;;;;;4975242;28;20211;-83
2024/01/12 00:57:43;;;;;;;9.40;5.70;;;1.80;79.90;;;;;;4968730;28;20663;-84
2024/01/12 01:00:14;;;;;;;2.47;2.33;;;1.80;79.90;;;;;;4968317;28;20720;-84
2024/01/12 01:02:42;;;;;;;4.47;4.07;;;1.80;79.80;;;;;;4962754;28;20231;-83
2024/01/12 01:05:11;;;;;;;9.10;4.20;;;1.80;79.90;;;;;;4968225;28;20637;-83
2024/01/12 01:07:42;;;;;;;5.27;4.83;;;1.80;80.00;;;;;;4966130;28;20295;-84
2024/01/12 01:10:13;;;;;;;7.90;2.83;;;1.80;79.90;;;;;;4967429;28;20204;-81
2024/01/12 01:12:42;;;;;;;7.50;5.03;;;1.90;80.00;;;;;;4966562;28;20708;-82
2024/01/12 01:15:14;;;;;;;7.00;4.00;;;1.90;79.90;;;;;;4974679;28;20208;-83
2024/01/12 01:17:43;;;;;;;7.13;3.17;;;1.80;80.00;;;;;;4970675;28;20197;-82
2024/01/12 01:20:14;;;;;;;7.13;4.33;;;1.80;79.90;;;;;;4974551;28;20211;-83
2024/01/12 01:22:43;;;;;;;3.30;3.10;;;1.80;80.10;;;;;;4967591;28;20233;-82
2024/01/12 01:25:12;;;;;;;4.13;3.80;;;1.90;80.10;;;;;;4972483;28;20323;-83
2024/01/12 01:27:40;;;;;;;3.77;3.47;;;1.80;80.20;;;;;;4976630;28;20196;-82
2024/01/12 01:30:09;;;;;;;5.30;4.67;;;1.80;80.30;;;;;;4969932;28;20849;-82
2024/01/12 01:32:40;;;;;;;4.23;3.83;;;1.80;80.30;;;;;;4967383;28;20229;-83
2024/01/12 01:35:09;;;;;;;2.27;2.00;;;1.80;80.40;;;;;;4974728;28;20217;-83
2024/01/12 01:37:37;;;;;;;2.43;2.33;;;1.80;80.70;;;;;;4973493;28;20198;-81
2024/01/12 01:40:08;;;;;;;2.27;1.97;;;1.80;80.60;;;;;;4969521;28;20476;-80
2024/01/12 01:42:37;;;;;;;4.10;2.47;;;1.80;80.80;;;;;;4970470;28;20213;-80
2024/01/12 01:45:08;;;;;;;4.57;4.23;;;1.80;80.90;;;;;;4967036;28;20205;-80
2024/01/12 01:47:37;;;;;;;2.53;2.33;;;1.70;81.10;;;;;;4967536;28;20227;-80
2024/01/12 01:50:08;;;;;;;4.10;2.47;;;1.70;80.90;;;;;;4969839;28;20218;-80
2024/01/12 01:52:37;;;;;;;8.40;4.87;;;1.70;80.80;;;;;;4964120;28;20214;-80
2024/01/12 01:55:07;;;;;;;5.23;3.90;;;1.60;81.70;;;;;;4962781;28;20269;-79
2024/01/12 01:57:37;;;;;;;5.07;3.17;;;1.60;81.10;;;;;;4966413;28;20291;-80
2024/01/12 02:00:06;;;;;;;2.50;2.30;;;1.60;81.40;;;;;;4967409;28;20314;-80
2024/01/12 02:02:35;;;;;;;3.40;2.53;;;1.60;81.30;;;;;;4969563;28;20200;-80
2024/01/12 02:05:09;;;;;;;6.83;3.30;;;1.60;81.20;;;;;;4975557;28;20231;-80
2024/01/12 02:07:38;;;;;;;3.17;2.87;;;1.60;81.40;;;;;;4967538;28;20215;-80
2024/01/12 02:10:09;;;;;;;9.60;2.60;;;1.60;81.30;;;;;;4972791;28;20200;-80
2024/01/12 02:12:39;;;;;;;3.77;2.40;;;1.60;81.40;;;;;;4972335;28;20256;-80
2024/01/12 02:15:11;;;;;;;3.00;2.50;;;1.70;81.50;;;;;;4975255;28;20234;-81
2024/01/12 02:17:40;;;;;;;7.90;3.60;;;1.70;81.40;;;;;;4966194;28;20207;-80
2024/01/12 02:20:11;;;;;;;3.80;3.17;;;1.70;81.30;;;;;;4971149;28;20452;-80
2024/01/12 02:22:41;;;;;;;5.23;3.30;;;1.70;81.30;;;;;;4969764;28;20732;-80
2024/01/12 02:25:11;;;;;;;3.77;3.03;;;1.70;81.40;;;;;;4967250;28;20221;-80
2024/01/12 02:27:39;;;;;;;2.60;2.40;;;1.70;81.30;;;;;;4974348;28;20209;-82
2024/01/12 02:30:09;;;;;;;4.27;3.37;;;1.70;81.30;;;;;;4974146;28;20210;-83
2024/01/12 02:32:37;;;;;;;1.77;1.67;;;1.70;81.40;;;;;;4978688;28;20230;-82
2024/01/12 02:35:07;;;;;;;4.33;3.60;;;1.70;81.60;;;;;;4970895;28;20207;-82
2024/01/12 02:37:36;;;;;;;10.97;2.63;;;1.80;81.40;;;;;;4973610;28;20219;-81
2024/01/12 02:40:07;;;;;;;3.80;3.53;;;1.70;81.30;;;;;;4967684;28;20362;-83
2024/01/12 02:42:36;;;;;;;3.00;2.73;;;1.70;81.30;;;;;;4961563;28;20205;-83
2024/01/12 02:45:05;;;;;;;5.03;4.70;;;1.70;81.30;;;;;;4970187;28;20233;-84
2024/01/12 02:47:34;;;;;;;3.60;2.20;;;1.80;81.30;;;;;;4965039;28;20199;-84
2024/01/12 02:50:02;;;;;;;5.23;4.20;;;1.80;81.20;;;;;;4970166;28;20211;-83
2024/01/12 02:52:35;;;;;;;3.10;2.90;;;1.80;81.20;;;;;;4968431;28;20220;-83
2024/01/12 02:55:06;;;;;;;4.53;3.03;;;1.80;81.10;;;;;;4968787;28;20753;-83
2024/01/12 02:57:35;;;;;;;6.47;3.87;;;1.80;81.00;;;;;;4967407;28;20199;-84
2024/01/12 03:00:05;;;;;;;6.93;3.07;;;1.80;81.10;;;;;;4967535;28;20216;-81
2024/01/12 03:02:35;;;;;;;3.13;2.90;;;1.80;81.90;;;;;;4973138;28;20657;-81
2024/01/12 03:05:03;;;;;;;2.77;2.43;;;1.80;81.00;;;;;;4972774;28;20929;-81
2024/01/12 03:07:32;;;;;;;2.70;2.47;;;1.80;81.00;;;;;;4971078;28;20197;-81
2024/01/12 03:10:01;;;;;;;4.23;3.70;;;1.80;80.80;;;;;;4974074;28;20202;-81
2024/01/12 03:12:32;;;;;;;1.53;1.43;;;1.90;80.80;;;;;;4968870;28;20213;-82
2024/01/12 03:15:00;;;;;;;6.83;2.90;;;1.90;80.70;;;;;;4970587;28;20279;-81
2024/01/12 03:17:29;;;;;;;3.23;2.80;;;1.90;80.70;;;;;;4976161;28;20680;-81
2024/01/12 03:19:58;;;;;;;5.93;3.63;;;1.90;80.50;;;;;;4977499;28;20200;-81
2024/01/12 03:22:29;;;;;;;5.07;4.37;;;1.90;80.50;;;;;;4969468;28;20292;-80
2024/01/12 03:24:58;;;;;;;4.00;3.60;;;1.90;80.40;;;;;;4971425;28;20232;-81
2024/01/12 03:27:26;;;;;;;8.70;3.53;;;1.90;80.20;;;;;;4969569;28;20467;-81
2024/01/12 03:29:56;;;;;;;11.87;2.67;;;2.00;80.30;;;;;;4969275;28;20295;-80
2024/01/12 03:32:25;;;;;;;3.63;2.80;;;1.90;80.20;;;;;;4966105;28;20226;-80
2024/01/12 03:34:54;;;;;;;2.33;2.13;;;1.90;80.20;;;;;;4973702;28;20241;-80
2024/01/12 03:37:23;;;;;;;4.97;2.53;;;1.90;80.10;;;;;;4971606;28;20219;-81
2024/01/12 03:39:51;;;;;;;3.03;2.13;;;2.00;80.30;;;;;;4972844;28;20203;-80
2024/01/12 03:42:20;;;;;;;1.93;1.83;;;2.00;80.30;;;;;;4970285;28;20291;-81
2024/01/12 03:44:49;;;;;;;5.33;3.53;;;2.00;80.50;;;;;;4969872;28;20238;-80
2024/01/12 03:47:19;;;;;;;4.10;3.70;;;2.00;80.20;;;;;;4963227;28;20301;-81
2024/01/12 03:49:47;;;;;;;4.53;4.07;;;2.00;80.20;;;;;;4972108;28;20254;-81
2024/01/12 03:52:16;;;;;;;3.27;3.07;;;2.00;80.30;;;;;;4970367;28;20204;-80
2024/01/12 03:54:45;;;;;;;18.67;3.13;;;2.00;80.20;;;;;;4969958;28;20202;-81
2024/01/12 03:57:13;;;;;;;6.03;3.23;;;2.00;80.20;;;;;;4967963;28;20271;-85
2024/01/12 03:59:42;;;;;;;6.43;2.77;;;2.00;80.30;;;;;;4968541;28;20695;-84
2024/01/12 04:02:11;;;;;;;6.20;4.80;;;2.00;80.30;;;;;;4966931;28;20215;-83
2024/01/12 04:04:42;;;;;;;3.73;3.40;;;2.10;80.30;;;;;;4965804;28;20232;-85
2024/01/12 04:07:11;;;;;;;2.17;1.97;;;2.10;80.30;;;;;;4971251;28;20207;-85
2024/01/12 04:09:40;;;;;;;6.10;5.47;;;2.10;80.40;;;;;;4969835;28;20522;-84
2024/01/12 04:12:09;;;;;;;3.87;3.57;;;2.20;80.50;;;;;;4968237;28;20213;-83
2024/01/12 04:14:38;;;;;;;2.87;2.57;;;2.20;80.50;;;;;;4969761;28;20253;-82
2024/01/12 04:17:06;;;;;;;3.07;2.77;;;2.30;80.30;;;;;;4968151;28;20231;-84
2024/01/12 04:19:35;;;;;;;1.70;1.60;;;2.30;80.20;;;;;;4972306;28;20262;-82
2024/01/12 04:22:05;;;;;;;4.93;4.13;;;2.30;80.00;;;;;;4977156;28;20223;-86
2024/01/12 04:24:34;;;;;;;8.73;5.07;;;2.30;80.00;;;;;;4976483;28;20313;-82
2024/01/12 04:27:03;;;;;;;6.73;1.60;;;2.30;80.00;;;;;;4971045;28;20215;-82
2024/01/12 04:29:31;;;;;;;2.17;2.07;;;2.30;80.20;;;;;;4976152;28;20207;-81
2024/01/12 04:32:00;;;;;;;4.40;4.00;;;2.30;80.10;;;;;;4965259;28;20561;-82
2024/01/12 04:34:29;;;;;;;6.90;3.63;;;2.30;80.00;;;;;;4974715;28;20676;-82
2024/01/12 04:36:58;;;;;;;4.07;3.67;;;2.30;79.90;;;;;;4958318;28;20295;-82
2024/01/12 04:39:28;;;;;;;11.03;2.70;;;2.30;79.80;;;;;;4962872;28;20200;-83
2024/01/12 04:41:57;;;;;;;6.50;3.70;;;2.30;79.70;;;;;;4962583;28;20212;-83
2024/01/12 04:44:25;;;;;;;2.37;2.17;;;2.30;79.60;;;;;;4963165;28;22481;-83
2024/01/12 04:46:54;;;;;;;2.80;2.33;;;2.20;79.60;;;;;;4964188;28;20247;-83
2024/01/12 04:49:22;;;;;;;8.03;3.13;;;2.20;79.60;;;;;;4971790;28;20208;-85
2024/01/12 04:51:51;;;;;;;4.57;4.23;;;2.20;79.60;;;;;;4964214;28;20680;-84
2024/01/12 04:54:20;;;;;;;7.97;3.37;;;2.30;79.60;;;;;;4964975;28;20216;-85
2024/01/12 04:56:50;;;;;;;3.67;3.37;;;2.20;79.60;;;;;;4966274;28;20212;-84
2024/01/12 04:59:21;;;;;;;1.93;1.83;;;2.20;79.60;;;;;;4966785;28;20846;-84
2024/01/12 05:01:49;;;;;;;7.77;4.33;;;2.30;79.60;;;;;;4971423;28;20614;-85
2024/01/12 05:04:21;;;;;;;2.83;2.53;;;2.30;79.60;;;;;;4970842;28;20196;-85
2024/01/12 05:06:50;;;;;;;1.37;1.27;;;2.20;79.40;;;;;;4970101;28;20321;-83
2024/01/12 05:09:18;;;;;;;3.53;3.23;;;2.20;79.50;;;;;;4976197;28;20208;-83
2024/01/12 05:11:47;;;;;;;2.87;2.67;;;2.30;79.60;;;;;;4976309;28;20209;-85
2024/01/12 05:14:17;;;;;;;6.03;3.57;;;2.20;79.60;;;;;;4972541;28;20212;-81
2024/01/12 05:16:46;;;;;;;4.77;3.73;;;2.20;79.70;;;;;;4965644;28;20234;-82
2024/01/12 05:19:15;;;;;;;5.97;4.03;;;2.30;79.70;;;;;;4969375;28;20560;-81
2024/01/12 05:21:44;;;;;;;6.50;3.43;;;2.30;79.80;;;;;;4962575;28;20304;-81
2024/01/12 05:24:12;;;;;;;4.47;3.63;;;2.30;79.90;;;;;;4976229;28;20205;-81
2024/01/12 05:26:41;;;;;;;3.57;2.90;;;2.30;79.90;;;;;;4972543;28;20232;-82
2024/01/12 05:29:12;;;;;;;4.53;3.50;;;2.30;79.90;;;;;;4969624;28;20262;-83
2024/01/12 05:31:43;;;;;;;18.60;4.90;;;2.20;79.90;;;;;;4961534;28;20211;-81
2024/01/12 05:34:12;;;;;;;4.30;2.40;;;2.20;79.90;;;;;;4967351;28;20208;-81
2024/01/12 05:36:41;;;;;;;4.83;4.07;;;2.20;79.90;;;;;;4962462;28;20198;-83
2024/01/12 05:39:09;;;;;;;7.77;3.27;;;2.20;79.90;;;;;;4969977;28;20201;-85
2024/01/12 05:41:38;;;;;;;6.77;3.80;;;2.20;80.00;;;;;;4962899;28;20281;-84
2024/01/12 05:44:06;;;;;;;3.67;3.17;;;2.10;79.90;;;;;;4969713;28;20207;-83
2024/01/12 05:46:35;;;;;;;6.00;4.43;;;2.10;79.90;;;;;;4969113;28;22793;-83
2024/01/12 05:49:07;;;;;;;5.40;4.53;;;2.10;79.90;;;;;;4969485;28;20204;-84
2024/01/12 05:51:35;;;;;;;3.97;2.37;;;2.10;80.10;;;;;;4968863;28;20293;-85
2024/01/12 05:54:04;;;;;;;7.40;3.33;;;2.00;80.10;;;;;;4974276;28;20209;-84
2024/01/12 05:56:33;;;;;;;4.30;3.90;;;2.10;80.20;;;;;;4970394;28;20496;-85
2024/01/12 05:59:02;;;;;;;3.43;3.13;;;2.10;80.20;;;;;;4968409;28;20819;-84
2024/01/12 06:01:31;;;;;;;2.80;2.53;;;2.10;81.10;;;;;;4967821;28;20227;-83
2024/01/12 06:04:02;;;;;;;3.73;3.43;;;2.10;80.30;;;;;;4975925;28;20372;-82
2024/01/12 06:06:32;;;;;;;4.20;2.90;;;2.10;80.40;;;;;;4972455;28;20309;-81
2024/01/12 06:09:01;;;;;;;3.83;3.37;;;2.10;80.30;;;;;;4981658;28;20206;-82
2024/01/12 06:11:30;;;;;;;3.83;2.67;;;2.10;80.30;;;;;;4970118;28;20203;-82
2024/01/12 06:13:59;;;;;;;2.27;2.10;;;2.20;80.50;;;;;;4975661;28;20655;-82
2024/01/12 06:16:28;;;;;;;3.60;2.33;;;2.10;80.50;;;;;;4969652;28;20664;-85
2024/01/12 06:18:56;;;;;;;9.40;2.43;;;2.20;80.50;;;;;;4972795;28;20509;-85
2024/01/12 06:21:25;;;;;;;2.70;2.50;;;2.20;80.40;;;;;;4972140;28;20628;-85
2024/01/12 06:23:59;;;;;;;24.07;5.20;;;2.20;80.50;;;;;;4969602;28;20203;-86
2024/01/12 06:26:29;;;;;;;1.37;1.33;;;2.20;80.40;;;;;;4972020;28;22057;-85
2024/01/12 06:28:59;;;;;;;1.30;1.27;;;2.30;80.30;;;;;;4969878;28;20224;-85
2024/01/12 06:31:31;;;;;;;3.63;3.33;;;2.30;80.40;;;;;;4979632;28;20248;-85
2024/01/12 06:34:00;;;;;;;4.70;2.53;;;2.30;80.40;;;;;;4969173;28;20208;-88
2024/01/12 06:36:29;;;;;;;4.63;3.10;;;2.30;80.30;;;;;;4970217;28;20207;-85
2024/01/12 06:38:59;;;;;;;10.13;5.27;;;2.40;80.20;;;;;;4971773;28;20211;-85
2024/01/12 06:41:27;;;;;;;5.23;2.57;;;2.40;80.20;;;;;;4968533;28;20213;-85
2024/01/12 06:43:57;;;;;;;4.20;3.20;;;2.40;80.10;;;;;;4971829;28;20199;-84
2024/01/12 06:46:26;;;;;;;5.73;4.13;;;2.40;80.20;;;;;;4973906;28;20238;-85
2024/01/12 06:48:54;;;;;;;6.40;4.10;;;2.40;80.30;;;;;;4973987;28;20251;-85
2024/01/12 06:51:24;;;;;;;5.53;3.93;;;2.40;80.20;;;;;;4965676;28;20205;-84
2024/01/12 06:53:52;;;;;;;6.47;2.90;;;2.50;80.30;;;;;;4973232;28;20200;-84
2024/01/12 06:56:23;;;;;;;6.33;4.47;;;2.50;80.30;;;;;;4974879;28;20713;-83
2024/01/12 06:58:51;;;;;;;2.10;1.77;;;2.50;80.20;;;;;;4973043;28;20881;-84
2024/01/12 07:01:20;;;;;;;2.43;2.33;;;2.60;80.20;;;;;;4973256;28;20200;-84
2024/01/12 07:03:51;;;;;;;6.57;3.77;;;2.60;80.20;;;;;;4969077;28;20249;-84
2024/01/12 07:06:20;;;;;;;4.97;4.57;;;2.60;80.00;;;;;;4974230;28;20236;-83
2024/01/12 07:08:48;;;;;;;2.60;2.43;;;2.70;80.00;;;;;;4971511;28;20190;-85
2024/01/12 07:11:17;;;;;;;6.40;3.57;;;2.70;80.00;;;;;;4977756;28;20225;-86
2024/01/12 07:13:47;;;;;;;5.00;4.20;;;2.70;80.00;;;;;;4975851;28;20635;-84
2024/01/12 07:16:16;;;;;;;1.90;1.80;;;2.70;79.90;;;;;;4972426;28;20206;-86
2024/01/12 07:18:46;;;;;;;3.57;3.30;;;2.80;80.00;;;;;;4987159;28;20235;-86
2024/01/12 07:21:15;;;;;;;2.43;2.23;;;2.80;80.00;;;;;;4974239;28;20259;-87
2024/01/12 07:23:44;;;;;;;3.80;3.40;;;2.80;79.90;;;;;;4972897;28;20687;-85
2024/01/12 07:26:13;;;;;;;3.40;3.10;;;2.80;79.90;;;;;;4973403;28;20237;-85
2024/01/12 07:28:42;;;;;;;3.67;3.37;;;2.90;80.00;;;;;;4977498;28;20208;-86
2024/01/12 07:31:12;;;;;;;12.53;3.77;;;2.80;80.00;;;;;;4983797;28;20650;-81
2024/01/12 07:33:41;;;;;;;3.77;3.47;;;2.90;80.10;;;;;;4972449;28;20611;-84
2024/01/12 07:36:10;;;;;;;9.13;2.83;;;2.90;80.10;;;;;;4972505;28;20233;-85
2024/01/12 07:38:38;;;;;;;3.10;2.90;;;2.90;80.10;;;;;;4976082;28;20207;-84
2024/01/12 07:41:07;;;;;;;2.77;2.27;;;2.90;80.10;;;;;;4971504;28;20206;-83
2024/01/12 07:43:36;;;;;;;5.80;3.73;;;2.90;80.00;;;;;;4976325;28;20225;-83
2024/01/12 07:46:05;;;;;;;7.10;5.43;;;2.90;80.10;;;;;;4972906;28;20213;-83
2024/01/12 07:48:37;;;;;;;7.23;4.13;;;2.90;80.10;;;;;;4968260;28;20209;-84
2024/01/12 07:51:06;;;;;;;4.03;3.67;;;2.90;80.20;;;;;;4978568;28;20712;-85
2024/01/12 07:53:35;;;;;;;1.67;1.57;;;2.80;80.20;;;;;;4969908;28;20216;-83
2024/01/12 07:56:03;;;;;;;1.50;1.40;;;2.90;80.20;;;;;;4970499;28;20241;-84
2024/01/12 07:58:32;;;;;;;1.43;1.40;;;2.90;80.10;;;;;;4968908;28;20336;-84
2024/01/12 08:01:01;;;;;;;3.60;3.30;;;3.00;80.30;;;;;;4965175;28;20204;-82
2024/01/12 08:03:29;;;;;;;3.47;3.20;;;3.00;80.10;;;;;;4969575;28;20393;-82
2024/01/12 08:06:00;;;;;;;5.77;3.57;;;3.00;80.00;;;;;;4970722;28;20214;-83
2024/01/12 08:08:29;;;;;;;3.63;3.13;;;3.10;80.00;;;;;;4967907;28;20228;-84
2024/01/12 08:10:58;;;;;;;5.13;2.90;;;3.10;79.80;;;;;;4967292;28;20698;-83
2024/01/12 08:13:26;;;;;;;4.23;3.93;;;3.20;79.90;;;;;;4970793;28;20229;-82
2024/01/12 08:15:55;;;;;;;5.73;2.63;;;3.30;79.70;;;;;;4971800;28;20198;-83
2024/01/12 08:18:23;;;;;;;14.53;2.97;;;3.30;79.50;;;;;;4973007;28;20204;-84
2024/01/12 08:20:53;;;;;;;2.27;2.13;;;3.30;79.60;;;;;;4971946;28;20970;-83
2024/01/12 08:23:23;;;;;;;5.93;3.83;;;3.40;79.50;;;;;;4966931;28;20210;-82
2024/01/12 08:25:51;;;;;;;7.27;4.43;;;3.40;79.20;;;;;;4972311;28;20675;-83
2024/01/12 08:28:20;;;;;;;7.43;4.37;;;3.50;79.40;;;;;;4968570;28;20227;-83
2024/01/12 08:30:48;;;;;;;2.87;2.50;;;3.60;79.40;;;;;;4971807;28;20194;-85
2024/01/12 08:33:17;;;;;;;12.47;5.13;;;3.60;79.20;;;;;;4982848;28;20295;-85
2024/01/12 08:35:46;;;;;;;11.27;5.10;;;3.60;79.10;;;;;;4970379;28;20289;-85
2024/01/12 08:38:14;;;;;;;4.23;3.00;;;3.60;79.10;;;;;;4971936;28;20194;-84
2024/01/12 08:40:45;;;;;;;6.13;4.23;;;3.70;79.00;;;;;;4970572;28;20202;-82
2024/01/12 08:43:13;;;;;;;13.23;2.80;;;3.70;78.90;;;;;;4973686;28;20231;-86
2024/01/12 08:45:42;;;;;;;5.10;3.37;;;3.80;78.50;;;;;;4973672;28;20198;-84
2024/01/12 08:48:11;;;;;;;4.47;4.07;;;3.80;78.40;;;;;;4977021;28;20591;-83
2024/01/12 08:50:40;;;;;;;3.53;2.93;;;3.90;78.60;;;;;;4972440;28;20604;-83
2024/01/12 08:53:09;;;;;;;9.90;4.10;;;3.90;78.60;;;;;;4977063;28;20209;-83
2024/01/12 08:56:22;;;;;;;3.23;2.93;;;4.00;78.60;;;;;;4951859;28;20300;-85
2024/01/12 08:58:51;;;;;;;5.53;3.33;;;4.00;78.20;;;;;;4966043;28;20225;-83
2024/01/12 09:05:02;;;;;;;1.13;1.13;;;4.10;78.00;;;;;;4929920;28;20221;-83
2024/01/12 09:07:31;;;;;;;3.37;2.20;;;4.20;78.60;;;;;;4966685;28;20222;-84
2024/01/12 09:10:00;;;;;;;2.70;2.23;;;4.20;77.80;;;;;;4966399;28;20209;-83
2024/01/12 09:12:59;;;;;;;7.50;4.63;;;4.30;77.80;;;;;;4973894;28;20207;-80
2024/01/12 09:15:29;;;;;;;2.33;2.23;;;4.40;77.20;;;;;;4963308;28;20300;-79
2024/01/12 09:17:57;;;;;;;12.67;4.53;;;4.40;76.80;;;;;;4963274;28;20199;-80
2024/01/12 09:20:26;;;;;;;3.93;3.43;;;4.40;76.70;;;;;;4960266;28;20212;-79
2024/01/12 09:22:55;;;;;;;7.47;2.63;;;4.50;76.60;;;;;;4975179;28;20275;-81
2024/01/12 09:25:24;;;;;;;4.83;2.90;;;4.50;76.60;;;;;;4962977;28;20216;-80
2024/01/12 09:27:55;;;;;;;3.67;2.40;;;4.60;76.90;;;;;;4973229;28;20647;-81
2024/01/12 09:30:41;;;;;;;6.07;2.90;;;4.60;76.90;;;;;;4965389;28;20198;-81
2024/01/12 09:35:52;;;;;;;8.20;3.40;;;4.70;76.60;;;;;;4977267;28;20201;-81
2024/01/12 09:38:22;;;;;;;3.57;3.23;;;4.70;76.20;;;;;;4963809;28;20298;-81
2024/01/12 09:40:51;;;;;;;5.40;3.67;;;4.80;76.40;;;;;;4972609;28;20206;-81
2024/01/12 09:43:22;;;;;;;4.70;3.53;;;4.80;76.60;;;;;;4972576;28;20202;-81
2024/01/12 09:45:53;;;;;;;12.50;2.70;;;4.80;76.30;;;;;;4964583;28;20763;-81
2024/01/12 09:48:22;;;;;;;11.80;6.20;;;4.80;76.00;;;;;;4971056;28;20312;-81
2024/01/12 09:50:52;;;;;;;3.67;3.30;;;4.90;75.90;;;;;;4961673;28;20213;-81
2024/01/12 09:53:21;;;;;;;5.50;3.63;;;4.90;76.00;;;;;;4966862;28;20206;-81
2024/01/12 09:55:53;;;;;;;6.83;3.73;;;5.00;76.00;;;;;;4960181;28;20246;-81
2024/01/12 09:58:38;;;;;;;3.20;2.23;;;5.00;75.80;;;;;;4967428;28;20209;-81
2024/01/12 10:01:09;;;;;;;13.80;5.57;;;5.00;75.80;;;;;;4964462;28;20492;-80
2024/01/12 10:03:38;;;;;;;8.97;3.20;;;5.10;75.80;;;;;;4954508;28;20206;-82
2024/01/12 10:06:07;;;;;;;3.30;3.00;;;5.10;75.80;;;;;;4962715;28;20202;-83
2024/01/12 10:08:37;;;;;;;3.40;3.10;;;5.10;75.70;;;;;;4966855;28;20230;-82
2024/01/12 10:11:06;;;;;;;6.20;4.80;;;5.20;75.80;;;;;;4960356;28;20225;-82
2024/01/12 10:13:34;;;;;;;3.37;3.13;;;5.20;76.00;;;;;;4966636;28;20212;-87
2024/01/12 10:16:20;;;;;;;8.43;4.87;;;5.20;75.70;;;;;;4971482;28;20728;-86
2024/01/12 10:19:03;;;;;;;3.57;3.23;;;5.30;75.70;;;;;;4967886;28;20288;-84
2024/01/12 10:27:18;;;;;;;13.77;5.30;;;5.30;75.40;;;;;;4978722;28;20205;-84
2024/01/12 10:32:30;;;;;;;6.30;3.37;;;5.30;75.60;;;;;;4967911;28;20226;-84
2024/01/12 10:34:59;;;;;;;9.07;3.63;;;5.30;75.60;;;;;;4976771;28;20244;-85
2024/01/12 10:37:29;;;;;;;3.17;2.93;;;5.40;75.70;;;;;;4980935;28;20262;-87
2024/01/12 10:40:04;;;;;;;6.50;3.83;;;5.40;75.50;;;;;;4976073;28;20206;-87
2024/01/12 10:45:21;;;;;;;2.53;2.33;;;5.40;75.40;;;;;;4979186;28;20211;-86
2024/01/12 10:48:00;;;;;;;8.23;4.60;;;5.40;75.40;;;;;;4973239;28;20654;-84
2024/01/12 10:50:33;;;;;;;4.53;3.60;;;5.40;75.30;;;;;;4988294;28;20223;-86
2024/01/12 10:53:11;;;;;;;17.63;3.03;;;5.40;75.20;;;;;;4982790;28;20265;-85
2024/01/12 10:55:44;;;;;;;2.13;1.93;;;5.50;75.30;;;;;;4967760;28;20604;-86
2024/01/12 10:58:14;;;;;;;8.07;3.93;;;5.50;75.50;;;;;;4967253;28;20210;-82
2024/01/12 11:00:44;;;;;;;4.60;3.50;;;5.60;75.60;;;;;;4965037;28;20231;-81
2024/01/12 11:03:16;;;;;;;4.03;3.67;;;5.60;75.60;;;;;;4970589;28;20201;-82
2024/01/12 11:05:45;;;;;;;4.90;2.17;;;5.70;75.10;;;;;;4966566;28;20252;-82
2024/01/12 11:10:59;;;;;;;3.30;3.00;;;5.70;75.00;;;;;;4970570;28;20199;-79
2024/01/12 11:13:27;;;;;;;3.33;2.80;;;5.70;74.90;;;;;;4964102;28;20205;-82
2024/01/12 11:16:10;;;;;;;2.20;2.03;;;5.70;74.50;;;;;;4966261;28;20208;-85
2024/01/12 11:18:41;;;;;;;11.23;3.40;;;5.70;74.60;;;;;;4978231;28;20277;-83
2024/01/12 11:21:10;;;;;;;3.90;3.50;;;5.80;75.00;;;;;;4969663;28;20236;-83
2024/01/12 11:23:41;;;;;;;8.10;4.40;;;5.80;75.00;;;;;;4971179;28;20216;-83
2024/01/12 11:26:13;;;;;;;3.27;2.47;;;5.90;75.30;;;;;;4968500;28;20677;-85
2024/01/12 11:28:42;;;;;;;3.13;2.87;;;5.90;75.00;;;;;;4974924;28;20467;-85
2024/01/12 11:34:22;;;;;;;3.93;3.57;;;6.00;74.80;;;;;;4966590;28;20197;-82
2024/01/12 11:37:03;;;;;;;5.53;2.40;;;6.10;74.80;;;;;;4973648;28;20241;-81
2024/01/12 11:39:36;;;;;;;5.53;3.33;;;6.10;74.30;;;;;;4972054;28;20209;-80
2024/01/12 11:42:06;;;;;;;2.03;1.90;;;6.20;74.20;;;;;;4971353;28;20457;-85
2024/01/12 11:44:36;;;;;;;2.63;2.43;;;6.20;74.30;;;;;;4975033;28;20255;-85
2024/01/12 11:47:08;;;;;;;2.40;2.20;;;6.20;73.70;;;;;;4971921;28;20520;-85
2024/01/12 11:49:37;;;;;;;5.17;2.17;;;6.20;73.60;;;;;;4976226;28;20231;-82
2024/01/12 11:52:21;;;;;;;7.73;4.00;;;6.10;73.40;;;;;;4966763;28;20212;-81
2024/01/12 11:54:51;;;;;;;2.10;2.00;;;6.10;73.60;;;;;;4977713;28;20587;-81
2024/01/12 11:57:21;;;;;;;2.67;2.47;;;6.10;73.90;;;;;;4975089;28;20212;-82
2024/01/12 11:59:49;;;;;;;10.23;3.37;;;6.10;73.90;;;;;;4972191;28;20323;-81
2024/01/12 12:05:23;;;;;;;3.73;2.97;;;6.20;74.30;;;;;;4971696;28;20195;-80
2024/01/12 12:07:53;;;;;;;6.73;3.83;;;6.20;74.30;;;;;;4966427;28;20232;-81
2024/01/12 12:10:23;;;;;;;9.43;4.30;;;6.20;74.40;;;;;;4967236;28;20231;-81
2024/01/12 12:13:09;;;;;;;4.13;2.17;;;6.10;74.10;;;;;;4970583;28;20204;-81
2024/01/12 12:15:37;;;;;;;3.07;2.23;;;6.10;74.10;;;;;;4975042;28;20213;-82
2024/01/12 12:18:07;;;;;;;3.10;2.70;;;6.10;74.10;;;;;;4967309;28;20212;-80
2024/01/12 12:23:47;;;;;;;3.07;1.47;;;6.00;74.00;;;;;;4975158;28;20204;-85
2024/01/12 12:26:17;;;;;;;2.83;1.87;;;5.90;74.10;;;;;;4971655;28;20333;-83
2024/01/12 12:28:46;;;;;;;2.77;2.57;;;5.90;74.30;;;;;;4973054;28;20263;-84
2024/01/12 12:31:17;;;;;;;7.93;4.47;;;5.90;74.40;;;;;;4978467;28;20193;-84
2024/01/12 12:33:47;;;;;;;5.83;3.10;;;5.80;74.60;;;;;;4972270;28;20211;-85
2024/01/12 12:36:17;;;;;;;9.33;3.07;;;5.80;74.70;;;;;;4975385;28;20713;-83
2024/01/12 12:39:09;;;;;;;3.13;2.40;;;5.80;74.90;;;;;;4969972;28;21049;-85
2024/01/12 12:41:38;;;;;;;3.43;2.97;;;5.80;75.00;;;;;;4975703;28;20708;-83
2024/01/12 12:44:06;;;;;;;2.53;2.33;;;5.80;75.20;;;;;;4976564;28;20637;-83
2024/01/12 12:46:35;;;;;;;5.60;2.87;;;5.80;75.20;;;;;;4971469;28;20550;-84
2024/01/12 12:49:04;;;;;;;3.47;2.53;;;5.80;75.80;;;;;;4973169;28;20747;-85
2024/01/12 12:51:34;;;;;;;3.03;2.67;;;5.80;75.60;;;;;;4965324;28;20212;-83
2024/01/12 12:54:03;;;;;;;5.83;5.33;;;5.80;75.60;;;;;;4964529;28;20238;-82
2024/01/12 12:56:34;;;;;;;2.73;1.53;;;5.70;75.50;;;;;;4969958;28;20207;-83
2024/01/12 12:59:02;;;;;;;5.43;3.40;;;5.80;75.60;;;;;;4972313;28;20239;-85
2024/01/12 13:04:14;;;;;;;4.87;3.17;;;5.70;75.90;;;;;;4968803;28;20220;-84
2024/01/12 13:06:47;;;;;;;5.83;3.90;;;5.70;75.90;;;;;;4968082;28;20203;-84
2024/01/12 13:09:16;;;;;;;4.10;2.23;;;5.70;75.90;;;;;;4965624;28;20211;-82
2024/01/12 13:11:47;;;;;;;6.20;1.87;;;5.70;75.80;;;;;;4969369;28;20254;-85
2024/01/12 13:14:16;;;;;;;3.97;2.47;;;5.70;75.90;;;;;;4966633;28;20226;-84
2024/01/12 13:17:08;;;;;;;3.33;2.50;;;5.70;76.80;;;;;;4972272;28;20641;-84
2024/01/12 13:19:37;;;;;;;3.93;3.63;;;5.70;76.10;;;;;;4962969;28;20561;-84
2024/01/12 13:22:06;;;;;;;2.67;2.33;;;5.70;76.20;;;;;;4970862;28;20744;-81
2024/01/12 13:24:34;;;;;;;1.97;1.87;;;5.70;76.10;;;;;;4969495;28;20290;-81
2024/01/12 13:27:07;;;;;;;2.10;1.90;;;5.70;76.20;;;;;;4973277;28;20215;-81
2024/01/12 13:29:36;;;;;;;2.57;2.37;;;5.70;76.20;;;;;;4962351;28;20235;-81
2024/01/12 13:32:05;;;;;;;4.67;3.77;;;5.70;76.10;;;;;;4966101;28;20206;-80
2024/01/12 13:43:23;;;;;;;6.73;3.13;;;5.70;76.20;;;;;;4974595;28;20209;-81
2024/01/12 13:45:51;;;;;;;3.90;3.07;;;5.70;76.20;;;;;;4968567;28;20291;-80
2024/01/12 13:48:26;;;;;;;1.87;1.77;;;5.80;76.20;;;;;;4967617;28;20211;-82
2024/01/12 13:56:38;;;;;;;4.03;2.53;;;5.70;76.40;;;;;;4968691;28;20200;-82